createdAt,value
2022-12-08T00:01:30.327Z,12.30
2022-12-08T00:03:59.897Z,11.23
2022-12-08T00:07:00.695Z,13.20
2022-12-08T00:09:38.580Z,12.10
2022-12-08T00:12:10.940Z,12.57
2022-12-08T00:14:42.058Z,11.73
2022-12-08T00:17:12.250Z,12.70
2022-12-08T00:19:40.589Z,13.77
2022-12-08T00:22:09.422Z,12.50
2022-12-08T00:24:39.765Z,13.13
2022-12-08T00:27:09.349Z,12.97
2022-12-08T00:29:36.287Z,12.03
2022-12-08T00:32:03.856Z,12.47
2022-12-08T00:34:32.479Z,13.10
2022-12-08T00:36:59.530Z,13.30
2022-12-08T00:39:26.611Z,13.43
2022-12-08T00:42:11.870Z,13.80
2022-12-08T00:44:40.502Z,14.00
2022-12-08T00:47:07.418Z,14.40
2022-12-08T00:49:34.434Z,13.50
2022-12-08T00:52:01.677Z,13.93
2022-12-08T00:54:28.638Z,14.17
2022-12-08T00:56:55.606Z,12.43
2022-12-08T00:59:22.656Z,13.27
2022-12-08T01:01:49.653Z,14.50
2022-12-08T01:04:19.130Z,13.13
2022-12-08T01:06:46.801Z,13.87
2022-12-08T01:09:16.046Z,13.53
2022-12-08T01:11:44.438Z,13.93
2022-12-08T01:14:12.243Z,13.73
2022-12-08T01:16:41.454Z,14.13
2022-12-08T01:19:11.440Z,14.00
2022-12-08T01:21:39.352Z,14.93
2022-12-08T01:24:07.120Z,13.47
2022-12-08T01:26:34.116Z,14.00
2022-12-08T01:29:01.104Z,13.40
2022-12-08T01:31:28.058Z,12.10
2022-12-08T01:33:55.051Z,11.20
2022-12-08T01:36:29.407Z,13.03
2022-12-08T01:39:01.910Z,13.30
2022-12-08T01:41:32.746Z,13.00
2022-12-08T01:44:04.266Z,12.30
2022-12-08T01:46:33.703Z,11.20
2022-12-08T01:49:30.661Z,12.10
2022-12-08T01:52:11.676Z,11.37
2022-12-08T01:54:55.652Z,11.47
2022-12-08T01:57:31.290Z,11.67
2022-12-08T02:00:07.810Z,12.10
2022-12-08T02:02:50.469Z,12.40
2022-12-08T02:05:19.465Z,11.87
2022-12-08T02:07:48.704Z,11.20
2022-12-08T02:10:22.014Z,12.13
2022-12-08T02:12:51.953Z,11.37
2022-12-08T02:15:19.184Z,11.10
2022-12-08T02:18:05.808Z,11.53
2022-12-08T02:20:41.557Z,12.03
2022-12-08T02:23:17.302Z,11.43
2022-12-08T02:26:17.998Z,11.40
2022-12-08T02:29:15.245Z,10.90
2022-12-08T02:32:30.684Z,9.60
2022-12-08T02:35:18.629Z,9.10
2022-12-08T02:37:53.544Z,11.60
2022-12-08T02:40:42.383Z,11.47
2022-12-08T02:43:20.698Z,10.20
2022-12-08T02:45:56.509Z,11.57
2022-12-08T02:48:23.492Z,10.50
2022-12-08T02:50:50.446Z,10.90
2022-12-08T02:53:17.384Z,10.57
2022-12-08T02:56:08.425Z,10.17
2022-12-08T02:59:12.398Z,9.60
2022-12-08T03:02:25.729Z,9.70
2022-12-08T03:05:03.931Z,10.20
2022-12-08T03:07:45.931Z,10.50
2022-12-08T03:10:37.940Z,10.00
2022-12-08T03:13:13.142Z,10.80
2022-12-08T03:15:42.047Z,10.70
2022-12-08T03:18:13.498Z,11.30
2022-12-08T03:20:42.153Z,10.97
2022-12-08T03:23:14.367Z,11.10
2022-12-08T03:25:58.103Z,11.27
2022-12-08T03:28:25.330Z,11.43
2022-12-08T03:30:56.485Z,12.57
2022-12-08T03:33:31.058Z,12.90
2022-12-08T03:36:00.162Z,12.60
2022-12-08T03:38:27.106Z,12.50
2022-12-08T03:41:12.574Z,12.93
2022-12-08T03:43:39.449Z,12.17
2022-12-08T03:46:06.333Z,12.97
2022-12-08T03:48:33.294Z,12.80
2022-12-08T03:51:00.176Z,14.20
2022-12-08T03:53:27.116Z,12.70
2022-12-08T03:55:54.597Z,13.73
2022-12-08T03:58:21.482Z,12.43
2022-12-08T04:00:48.366Z,11.47
2022-12-08T04:03:15.391Z,12.70
2022-12-08T04:05:42.367Z,12.10
2022-12-08T04:08:09.402Z,11.70
2022-12-08T04:10:36.409Z,11.40
2022-12-08T04:13:03.774Z,12.17
2022-12-08T04:15:30.656Z,12.80
2022-12-08T04:17:57.652Z,12.00
2022-12-08T04:20:24.548Z,12.40
2022-12-08T04:22:52.568Z,11.50
2022-12-08T04:25:19.672Z,10.90
2022-12-08T04:27:46.630Z,11.00
2022-12-08T04:30:13.704Z,10.53
2022-12-08T04:32:44.315Z,11.27
2022-12-08T04:35:14.265Z,10.77
2022-12-08T04:37:41.198Z,11.77
2022-12-08T04:40:08.736Z,10.60
2022-12-08T04:42:35.668Z,11.70
2022-12-08T04:45:02.821Z,11.07
2022-12-08T04:47:29.770Z,11.27
2022-12-08T04:49:56.894Z,12.13
2022-12-08T04:52:24.121Z,11.93
2022-12-08T04:54:51.108Z,11.83
2022-12-08T04:57:17.957Z,12.53
2022-12-08T04:59:44.820Z,13.00
2022-12-08T05:02:11.798Z,10.33
2022-12-08T05:04:39.113Z,10.63
2022-12-08T05:07:06.293Z,11.90
2022-12-08T05:09:33.192Z,12.00
2022-12-08T05:12:00.114Z,10.83
2022-12-08T05:14:27.082Z,12.30
2022-12-08T05:16:54.062Z,10.83
2022-12-08T05:19:21.003Z,11.37
2022-12-08T05:21:47.901Z,12.57
2022-12-08T05:24:14.842Z,12.70
2022-12-08T05:26:41.815Z,12.43
2022-12-08T05:29:08.785Z,11.93
2022-12-08T05:31:35.750Z,11.37
2022-12-08T05:34:03.577Z,13.83
2022-12-08T05:36:30.758Z,13.20
2022-12-08T05:38:58.455Z,14.67
2022-12-08T05:41:25.496Z,12.33
2022-12-08T05:43:52.418Z,13.23
2022-12-08T05:46:19.437Z,14.53
2022-12-08T05:48:46.361Z,12.90
2022-12-08T05:51:24.226Z,13.80
2022-12-08T05:53:52.569Z,13.83
2022-12-08T05:56:20.840Z,13.70
2022-12-08T05:58:49.316Z,13.57
2022-12-08T06:01:34.594Z,13.83
2022-12-08T06:04:04.048Z,13.60
2022-12-08T06:06:31.714Z,12.40
2022-12-08T06:08:58.761Z,13.80
2022-12-08T06:11:29.331Z,13.10
2022-12-08T06:13:57.293Z,13.80
2022-12-08T06:16:26.272Z,14.43
2022-12-08T06:18:54.160Z,14.17
2022-12-08T06:21:21.469Z,12.57
2022-12-08T06:23:53.603Z,12.13
2022-12-08T06:26:21.063Z,12.43
2022-12-08T06:28:49.405Z,12.20
2022-12-08T06:31:25.645Z,12.23
2022-12-08T06:33:53.845Z,12.80
2022-12-08T06:36:25.229Z,11.03
2022-12-08T06:38:53.162Z,11.23
2022-12-08T06:41:20.819Z,11.83
2022-12-08T06:43:47.905Z,11.23
2022-12-08T06:46:19.569Z,13.80
2022-12-08T06:48:47.134Z,11.53
2022-12-08T06:51:20.705Z,11.13
2022-12-08T06:53:47.721Z,12.03
2022-12-08T06:56:15.965Z,10.67
2022-12-08T06:58:49.035Z,11.70
2022-12-08T07:01:19.036Z,10.80
2022-12-08T07:03:46.350Z,10.20
2022-12-08T07:06:16.886Z,10.10
2022-12-08T07:08:43.933Z,10.20
2022-12-08T07:11:14.213Z,11.17
2022-12-08T07:13:42.337Z,10.00
2022-12-08T07:16:11.616Z,9.40
2022-12-08T07:18:39.573Z,9.43
2022-12-08T07:21:10.038Z,10.00
2022-12-08T07:23:37.960Z,9.50
2022-12-08T07:26:08.392Z,9.63
2022-12-08T07:28:37.806Z,10.50
2022-12-08T07:31:05.724Z,10.17
2022-12-08T07:33:35.947Z,9.63
2022-12-08T07:36:05.794Z,9.33
2022-12-08T07:38:33.348Z,9.70
2022-12-08T07:41:00.867Z,10.70
2022-12-08T07:43:27.989Z,10.73
2022-12-08T07:45:55.063Z,9.60
2022-12-08T07:48:22.228Z,11.10
2022-12-08T07:50:49.187Z,10.80
2022-12-08T07:53:16.058Z,10.40
2022-12-08T07:55:44.016Z,10.93
2022-12-08T07:58:11.375Z,11.57
2022-12-08T08:00:38.407Z,10.17
2022-12-08T08:03:06.210Z,10.93
2022-12-08T08:05:33.239Z,11.50
2022-12-08T08:08:00.291Z,12.00
2022-12-08T08:10:27.315Z,11.30
2022-12-08T08:12:54.268Z,11.30
2022-12-08T08:15:21.431Z,13.80
2022-12-08T08:17:52.339Z,12.80
2022-12-08T08:20:21.046Z,13.07
2022-12-08T08:22:50.381Z,12.80
2022-12-08T08:25:19.509Z,12.67
2022-12-08T08:27:46.849Z,12.70
2022-12-08T08:30:19.938Z,12.97
2022-12-08T08:32:49.028Z,14.17
2022-12-08T08:35:16.669Z,13.53
2022-12-08T08:37:48.500Z,12.57
2022-12-08T08:40:17.670Z,13.43
2022-12-08T08:42:44.811Z,12.40
2022-12-08T08:45:12.097Z,12.80
2022-12-08T08:47:38.987Z,13.20
2022-12-08T08:50:07.106Z,12.87
2022-12-08T08:52:34.490Z,12.70
2022-12-08T08:55:01.491Z,11.70
2022-12-08T08:57:28.433Z,12.10
2022-12-08T08:59:55.371Z,12.70
2022-12-08T09:02:22.629Z,12.57
2022-12-08T09:04:49.646Z,11.50
2022-12-08T09:07:16.721Z,11.13
2022-12-08T09:09:43.762Z,10.50
2022-12-08T09:12:11.528Z,10.47
2022-12-08T09:14:38.781Z,10.27
2022-12-08T09:17:08.654Z,9.97
2022-12-08T09:19:35.850Z,9.70
2022-12-08T09:22:02.741Z,9.07
2022-12-08T09:24:29.578Z,8.87
2022-12-08T09:26:56.710Z,8.87
2022-12-08T09:29:24.686Z,8.23
2022-12-08T09:31:51.730Z,8.43
2022-12-08T09:34:18.684Z,9.00
2022-12-08T09:36:45.691Z,8.13
2022-12-08T09:39:12.699Z,7.77
2022-12-08T09:41:48.228Z,7.83
2022-12-08T09:44:40.123Z,5.93
2022-12-08T09:47:36.393Z,7.03
2022-12-08T09:50:41.248Z,6.73
2022-12-08T09:53:18.792Z,6.63
2022-12-08T09:56:17.854Z,7.67
2022-12-08T09:58:58.626Z,7.83
2022-12-08T10:01:38.232Z,6.60
2022-12-08T10:04:18.947Z,6.93
2022-12-08T10:07:13.503Z,7.53
2022-12-08T10:09:59.752Z,6.53
2022-12-08T10:13:17.149Z,7.90
2022-12-08T10:16:22.020Z,7.53
2022-12-08T10:19:22.779Z,9.33
2022-12-08T10:21:50.797Z,8.20
2022-12-08T10:24:40.895Z,8.40
2022-12-08T10:27:12.532Z,8.07
2022-12-08T10:29:41.436Z,8.33
2022-12-08T10:32:22.839Z,7.53
2022-12-08T10:35:10.907Z,9.80
2022-12-08T10:37:38.574Z,8.70
2022-12-08T10:40:17.964Z,7.23
2022-12-08T10:42:52.822Z,8.10
2022-12-08T10:45:45.222Z,8.23
2022-12-08T10:48:26.606Z,8.50
2022-12-08T10:50:57.579Z,8.03
2022-12-08T10:53:32.618Z,8.00
2022-12-08T10:56:02.495Z,8.50
2022-12-08T10:58:40.679Z,7.57
2022-12-08T11:01:25.771Z,8.17
2022-12-08T11:04:04.521Z,7.40
2022-12-08T11:06:32.872Z,8.70
2022-12-08T11:09:16.037Z,8.33
2022-12-08T11:11:58.910Z,7.73
2022-12-08T11:14:42.372Z,7.23
2022-12-08T11:17:22.821Z,7.13
2022-12-08T11:20:22.069Z,7.40
2022-12-08T11:22:55.542Z,8.03
2022-12-08T11:25:29.244Z,7.20
2022-12-08T11:28:01.945Z,6.90
2022-12-08T11:30:39.729Z,8.60
2022-12-08T11:33:24.315Z,7.10
2022-12-08T11:36:05.773Z,8.13
2022-12-08T11:38:35.301Z,7.73
2022-12-08T11:41:16.155Z,7.77
2022-12-08T11:44:03.722Z,7.97
2022-12-08T11:47:07.018Z,8.20
2022-12-08T11:49:39.536Z,9.13
2022-12-08T11:52:22.763Z,9.20
2022-12-08T11:55:26.470Z,7.90
2022-12-08T11:57:55.024Z,9.10
2022-12-08T12:00:22.151Z,9.00
2022-12-08T12:03:05.190Z,9.30
2022-12-08T12:06:13.030Z,9.30
2022-12-08T12:08:59.258Z,8.07
2022-12-08T12:12:16.752Z,7.70
2022-12-08T12:15:25.315Z,8.40
2022-12-08T12:18:16.490Z,7.90
2022-12-08T12:20:59.402Z,8.00
2022-12-08T12:23:51.783Z,7.93
2022-12-08T12:26:32.356Z,7.10
2022-12-08T12:29:16.399Z,7.57
2022-12-08T12:31:49.446Z,7.20
2022-12-08T12:34:38.938Z,7.23
2022-12-08T12:37:13.241Z,6.90
2022-12-08T12:40:04.212Z,8.03
2022-12-08T12:43:09.667Z,8.27
2022-12-08T12:45:43.789Z,7.90
2022-12-08T12:48:22.935Z,7.87
2022-12-08T12:50:52.210Z,7.30
2022-12-08T12:53:19.047Z,6.13
2022-12-08T12:55:46.027Z,6.27
2022-12-08T12:58:27.907Z,5.60
2022-12-08T13:01:21.157Z,5.60
2022-12-08T13:03:52.297Z,7.70
2022-12-08T13:06:43.711Z,5.73
2022-12-08T13:09:31.974Z,6.03
2022-12-08T13:12:18.300Z,5.67
2022-12-08T13:14:49.634Z,5.33
2022-12-08T13:17:38.531Z,6.60
2022-12-08T13:20:07.925Z,5.80
2022-12-08T13:23:02.956Z,7.40
2022-12-08T13:25:47.781Z,7.33
2022-12-08T13:28:37.692Z,7.47
2022-12-08T13:31:49.800Z,7.80
2022-12-08T13:34:45.432Z,10.97
2022-12-08T13:37:12.292Z,7.43
2022-12-08T13:40:14.563Z,7.60
2022-12-08T13:43:15.544Z,8.30
2022-12-08T13:47:02.867Z,7.20
2022-12-08T13:55:25.845Z,7.33
2022-12-08T13:57:29.977Z,8.17
2022-12-08T14:00:04.313Z,7.00
2022-12-08T14:02:40.809Z,9.90
2022-12-08T14:05:18.506Z,7.77
2022-12-08T14:07:50.005Z,10.63
2022-12-08T14:10:24.128Z,8.87
2022-12-08T14:13:00.919Z,9.70
2022-12-08T14:15:31.383Z,9.60
2022-12-08T14:18:02.594Z,9.03
2022-12-08T14:20:46.482Z,8.07
2022-12-08T14:23:20.017Z,7.77
2022-12-08T14:25:48.379Z,8.00
2022-12-08T14:28:15.385Z,7.90
2022-12-08T14:30:42.753Z,7.90
2022-12-08T14:33:17.083Z,7.90
2022-12-08T14:35:52.064Z,8.00
2022-12-08T14:38:21.260Z,7.60
2022-12-08T14:41:06.681Z,6.87
2022-12-08T14:43:33.897Z,8.20
2022-12-08T14:46:06.147Z,6.80
2022-12-08T14:48:53.344Z,7.80
2022-12-08T14:51:27.321Z,8.57
2022-12-08T14:53:58.993Z,7.90
2022-12-08T14:56:42.321Z,8.50
2022-12-08T14:59:25.255Z,8.43
2022-12-08T15:02:09.565Z,8.50
2022-12-08T15:04:39.572Z,7.80
2022-12-08T15:07:19.541Z,7.93
2022-12-08T15:09:50.213Z,8.43
2022-12-08T15:12:27.693Z,8.47
2022-12-08T15:15:08.467Z,8.60
2022-12-08T15:17:42.237Z,8.53
2022-12-08T15:20:43.130Z,9.10
2022-12-08T15:23:42.458Z,7.83
2022-12-08T15:26:18.567Z,7.70
2022-12-08T15:28:45.570Z,7.67
2022-12-08T15:31:12.505Z,7.67
2022-12-08T15:33:39.487Z,9.40
2022-12-08T15:36:06.727Z,9.37
2022-12-08T15:38:34.087Z,9.27
2022-12-08T15:41:01.106Z,10.27
2022-12-08T15:43:28.629Z,9.90
2022-12-08T15:46:00.267Z,8.87
2022-12-08T15:48:30.829Z,8.80
2022-12-08T15:50:58.403Z,7.30
2022-12-08T15:53:25.676Z,6.77
2022-12-08T15:56:25.664Z,7.60
2022-12-08T15:58:56.505Z,7.07
2022-12-08T16:01:24.959Z,7.40
2022-12-08T16:09:41.771Z,6.50
2022-12-08T16:13:40.504Z,6.00
2022-12-08T16:18:23.882Z,6.60
2022-12-08T16:21:12.427Z,6.20
2022-12-08T16:23:45.667Z,7.07
2022-12-08T16:27:01.201Z,6.13
2022-12-08T16:29:08.174Z,7.10
2022-12-08T16:31:35.207Z,6.53
2022-12-08T16:34:02.306Z,6.73
2022-12-08T16:36:29.218Z,6.23
2022-12-08T16:38:56.125Z,7.27
2022-12-08T16:41:41.533Z,6.20
2022-12-08T16:44:08.399Z,6.60
2022-12-08T16:46:36.042Z,6.13
2022-12-08T16:49:08.405Z,7.13
2022-12-08T16:51:35.345Z,7.27
2022-12-08T16:54:02.306Z,8.10
2022-12-08T16:56:33.020Z,8.93
2022-12-08T16:59:02.039Z,7.63
2022-12-08T17:01:29.382Z,8.43
2022-12-08T17:04:29.141Z,7.53
2022-12-08T17:06:43.268Z,7.50
2022-12-08T17:09:10.118Z,7.20
2022-12-08T17:11:42.598Z,7.20
2022-12-08T17:14:12.856Z,7.27
2022-12-08T17:16:40.832Z,7.33
2022-12-08T17:19:07.929Z,7.50
2022-12-08T17:21:35.087Z,8.90
2022-12-08T17:24:02.013Z,7.37
2022-12-08T17:26:28.974Z,8.00
2022-12-08T17:29:01.011Z,7.77
2022-12-08T17:31:31.229Z,7.27
2022-12-08T17:34:04.479Z,8.27
2022-12-08T17:36:31.973Z,7.10
2022-12-08T17:39:00.662Z,8.37
2022-12-08T17:41:28.660Z,10.40
2022-12-08T17:43:56.092Z,9.43
2022-12-08T17:46:23.497Z,9.53
2022-12-08T17:48:50.659Z,10.00
2022-12-08T17:51:17.945Z,8.40
2022-12-08T17:53:45.030Z,8.97
2022-12-08T17:56:20.111Z,8.87
2022-12-08T17:58:52.826Z,10.47
2022-12-08T18:01:23.136Z,8.30
2022-12-08T18:03:50.869Z,9.70
2022-12-08T18:06:17.919Z,7.97
2022-12-08T18:08:45.201Z,8.10
2022-12-08T18:11:16.500Z,8.37
2022-12-08T18:13:43.911Z,7.50
2022-12-08T18:16:12.391Z,7.90
2022-12-08T18:18:39.632Z,8.00
2022-12-08T18:21:07.380Z,8.10
2022-12-08T18:23:37.487Z,7.83
2022-12-08T18:26:06.554Z,7.70
2022-12-08T18:28:33.961Z,8.50
2022-12-08T18:31:01.253Z,8.70
2022-12-08T18:33:28.244Z,8.30
2022-12-08T18:35:55.205Z,7.63
2022-12-08T18:38:22.134Z,8.37
2022-12-08T18:40:48.987Z,9.00
2022-12-08T18:43:15.882Z,8.50
2022-12-08T18:45:42.814Z,8.80
2022-12-08T18:48:09.759Z,9.10
2022-12-08T18:50:36.873Z,8.50
2022-12-08T18:53:03.855Z,9.03
2022-12-08T18:55:30.866Z,8.90
2022-12-08T18:57:57.786Z,9.00
2022-12-08T19:00:24.833Z,7.77
2022-12-08T19:02:51.924Z,9.07
2022-12-08T19:05:19.035Z,10.27
2022-12-08T19:07:46.502Z,10.00
2022-12-08T19:10:13.486Z,9.53
2022-12-08T19:12:40.750Z,10.50
2022-12-08T19:15:09.002Z,10.70
2022-12-08T19:17:36.206Z,9.60
2022-12-08T19:20:05.895Z,9.40
2022-12-08T19:22:33.013Z,13.00
2022-12-08T19:25:00.119Z,11.90
2022-12-08T19:27:28.052Z,10.47
2022-12-08T19:29:55.893Z,10.77
2022-12-08T19:32:22.810Z,11.13
2022-12-08T19:34:49.669Z,10.30
2022-12-08T19:37:16.573Z,9.70
2022-12-08T19:40:01.842Z,9.23
2022-12-08T19:42:47.136Z,9.40
2022-12-08T19:45:21.657Z,8.63
2022-12-08T19:47:48.954Z,10.20
2022-12-08T19:50:35.753Z,10.90
2022-12-08T19:53:14.641Z,10.30
2022-12-08T19:55:43.146Z,10.07
2022-12-08T19:58:10.697Z,9.13
2022-12-08T20:00:42.870Z,9.97
2022-12-08T20:03:14.989Z,9.90
2022-12-08T20:05:43.487Z,9.60
2022-12-08T20:08:10.803Z,9.83
2022-12-08T20:10:41.491Z,9.60
2022-12-08T20:13:29.189Z,10.80
2022-12-08T20:15:56.761Z,10.20
2022-12-08T20:18:24.426Z,10.30
2022-12-08T20:20:51.971Z,11.73
2022-12-08T20:23:19.026Z,11.40
2022-12-08T20:25:47.522Z,12.73
2022-12-08T20:28:15.020Z,11.57
2022-12-08T20:30:44.154Z,13.17
2022-12-08T20:33:13.954Z,11.23
2022-12-08T20:35:41.030Z,12.13
2022-12-08T20:38:08.292Z,13.10
2022-12-08T20:40:35.462Z,12.00
2022-12-08T20:43:02.500Z,12.30
2022-12-08T20:45:29.553Z,10.83
2022-12-08T20:47:56.547Z,10.50
2022-12-08T20:50:23.611Z,9.60
2022-12-08T20:52:50.674Z,9.80
2022-12-08T20:55:17.750Z,9.97
2022-12-08T20:57:44.997Z,10.17
2022-12-08T21:00:12.916Z,10.03
2022-12-08T21:02:48.528Z,9.93
2022-12-08T21:05:18.227Z,9.33
2022-12-08T21:07:45.431Z,10.10
2022-12-08T21:10:12.682Z,10.03
2022-12-08T21:12:39.713Z,9.20
2022-12-08T21:15:07.753Z,10.27
2022-12-08T21:17:34.924Z,9.60
2022-12-08T21:20:02.203Z,10.37
2022-12-08T21:22:30.022Z,11.33
2022-12-08T21:24:57.013Z,10.97
2022-12-08T21:27:24.042Z,11.80
2022-12-08T21:29:50.961Z,11.27
2022-12-08T21:32:17.917Z,11.03
2022-12-08T21:34:45.582Z,9.10
2022-12-08T21:37:12.693Z,10.00
2022-12-08T21:39:39.751Z,9.60
2022-12-08T21:42:29.343Z,8.83
2022-12-08T21:45:01.047Z,9.40
2022-12-08T21:47:28.500Z,10.37
2022-12-08T21:49:55.489Z,9.43
2022-12-08T21:52:22.710Z,11.97
2022-12-08T21:54:49.747Z,9.73
2022-12-08T21:57:16.758Z,10.50
2022-12-08T21:59:43.818Z,10.13
2022-12-08T22:02:20.855Z,10.93
2022-12-08T22:04:50.050Z,10.53
2022-12-08T22:07:17.426Z,10.40
2022-12-08T22:09:44.642Z,9.53
2022-12-08T22:12:16.451Z,12.20
2022-12-08T22:14:44.080Z,11.23
2022-12-08T22:17:11.517Z,11.63
2022-12-08T22:19:38.806Z,14.67
2022-12-08T22:22:05.944Z,13.73
2022-12-08T22:24:32.889Z,13.50
2022-12-08T22:26:59.928Z,11.00
2022-12-08T22:29:26.983Z,9.80
2022-12-08T22:31:54.058Z,9.80
2022-12-08T22:34:21.142Z,10.23
2022-12-08T22:36:49.033Z,9.70
2022-12-08T22:39:16.104Z,10.90
2022-12-08T22:41:43.045Z,10.20
2022-12-08T22:44:10.291Z,9.00
2022-12-08T22:46:37.908Z,9.97
2022-12-08T22:49:04.820Z,10.20
2022-12-08T22:51:31.724Z,9.50
2022-12-08T22:53:58.563Z,9.73
2022-12-08T22:56:25.432Z,9.90
2022-12-08T22:58:52.435Z,9.40
2022-12-08T23:01:29.982Z,10.17
2022-12-08T23:03:58.620Z,9.83
2022-12-08T23:06:27.357Z,9.03
2022-12-08T23:08:54.827Z,10.47
2022-12-08T23:11:25.289Z,8.87
2022-12-08T23:13:52.322Z,9.77
2022-12-08T23:16:19.251Z,9.27
2022-12-08T23:18:46.552Z,8.90
2022-12-08T23:21:17.694Z,8.50
2022-12-08T23:23:44.745Z,8.17
2022-12-08T23:26:33.340Z,9.10
2022-12-08T23:29:00.792Z,10.17
2022-12-08T23:31:28.421Z,9.40
2022-12-08T23:33:55.558Z,9.73
2022-12-08T23:36:26.244Z,10.80
2022-12-08T23:38:54.797Z,9.73
2022-12-08T23:41:22.094Z,10.77
2022-12-08T23:43:52.428Z,9.90
2022-12-08T23:46:22.631Z,9.17
2022-12-08T23:48:50.974Z,8.90
2022-12-08T23:51:19.019Z,10.33
2022-12-08T23:53:46.869Z,9.00
2022-12-08T23:56:16.832Z,9.87
2022-12-08T23:58:44.533Z,9.70
